Time;durP1;ratioP1;P1;durP2;ratioP2;P2;SDS_P1;SDS_P2;PMS_P1;PMS_P2;Temp;Humidity;BMP_temperature;BMP_pressure;BME280_temperature;BME280_humidity;BME280_pressure;Samples;Min_cycle;Max_cycle;Signal;HPM_P1;HPM_P2
2022/07/19 00:02:24;;;;;;;3.67;2.55;;;21.60;99.90;;;;;;4856152;29;37621;-84
2022/07/19 00:04:50;;;;;;;4.38;2.75;;;21.60;99.90;;;;;;4856801;29;38355;-84
2022/07/19 00:07:16;;;;;;;4.65;3.30;;;21.60;99.90;;;;;;4873450;29;37926;-84
2022/07/19 00:09:42;;;;;;;6.82;2.83;;;21.50;99.90;;;;;;4856795;29;36489;-84
2022/07/19 00:12:08;;;;;;;4.85;3.00;;;21.50;99.90;;;;;;4854708;29;39162;-84
2022/07/19 00:14:34;;;;;;;5.18;3.28;;;21.50;99.90;;;;;;4854909;29;37690;-84
2022/07/19 00:17:00;;;;;;;4.25;3.15;;;21.50;99.90;;;;;;4856997;29;36644;-84
2022/07/19 00:19:26;;;;;;;5.40;2.80;;;21.50;99.90;;;;;;4870356;29;36677;-84
2022/07/19 00:21:52;;;;;;;5.75;3.42;;;21.40;99.90;;;;;;4854813;29;37957;-84
2022/07/19 00:24:18;;;;;;;5.22;3.20;;;21.40;99.90;;;;;;4872544;29;38527;-84
2022/07/19 00:26:44;;;;;;;3.55;3.10;;;21.40;99.90;;;;;;4865750;29;37992;-84
2022/07/19 00:29:10;;;;;;;3.88;3.25;;;21.30;99.90;;;;;;4854502;29;36240;-84
2022/07/19 00:31:36;;;;;;;4.57;3.45;;;21.20;99.90;;;;;;4857285;29;37867;-84
2022/07/19 00:34:03;;;;;;;5.55;3.08;;;21.20;99.90;;;;;;4858646;29;38721;-84
2022/07/19 00:36:29;;;;;;;3.22;2.85;;;21.10;99.90;;;;;;4857138;29;38640;-84
2022/07/19 00:38:55;;;;;;;4.18;3.20;;;21.10;99.90;;;;;;4857288;29;36552;-85
2022/07/19 00:41:21;;;;;;;5.65;2.90;;;21.10;99.90;;;;;;4853920;29;39425;-85
2022/07/19 00:43:47;;;;;;;4.72;3.08;;;21.10;99.90;;;;;;4853254;29;37643;-84
2022/07/19 00:46:14;;;;;;;6.07;3.25;;;21.00;99.90;;;;;;4870334;29;38813;-84
2022/07/19 00:48:41;;;;;;;3.90;3.10;;;21.00;99.90;;;;;;4874171;29;37162;-83
2022/07/19 00:51:12;;;;;;;6.28;3.05;;;21.00;99.90;;;;;;4871648;29;39822;-84
2022/07/19 00:53:40;;;;;;;5.43;2.88;;;20.90;99.90;;;;;;4867499;29;38250;-84
2022/07/19 00:56:08;;;;;;;4.85;3.40;;;20.90;99.90;;;;;;4855488;29;39251;-84
2022/07/19 00:58:37;;;;;;;4.22;3.20;;;20.90;99.90;;;;;;4855068;29;37339;-84
2022/07/19 01:01:05;;;;;;;5.63;4.07;;;20.90;99.90;;;;;;4855061;29;37996;-84
2022/07/19 01:03:35;;;;;;;5.38;3.90;;;20.90;99.90;;;;;;4856502;29;37678;-84
2022/07/19 01:06:02;;;;;;;8.10;4.88;;;20.90;99.90;;;;;;4855999;29;38862;-84
2022/07/19 01:08:29;;;;;;;7.15;4.53;;;20.80;99.90;;;;;;4874062;29;37294;-84
2022/07/19 01:10:55;;;;;;;7.65;4.38;;;20.70;99.90;;;;;;4854877;29;38528;-84
2022/07/19 01:13:21;;;;;;;4.65;3.28;;;20.70;99.90;;;;;;4873573;29;38471;-84
2022/07/19 01:15:47;;;;;;;4.20;3.42;;;20.60;99.90;;;;;;4856930;29;37955;-84
2022/07/19 01:18:13;;;;;;;4.45;3.22;;;20.60;99.90;;;;;;4855597;29;37477;-84
2022/07/19 01:20:39;;;;;;;7.32;3.30;;;20.60;99.90;;;;;;4854683;29;38856;-84
2022/07/19 01:23:05;;;;;;;6.15;3.78;;;20.60;99.90;;;;;;4855926;29;37747;-84
2022/07/19 01:25:34;;;;;;;4.47;3.40;;;20.50;99.90;;;;;;4856094;29;38046;-84
2022/07/19 01:28:04;;;;;;;5.88;3.65;;;20.50;99.90;;;;;;4855133;29;36018;-84
2022/07/19 01:30:31;;;;;;;4.07;3.47;;;20.50;99.90;;;;;;4854901;29;47395;-84
2022/07/19 01:32:57;;;;;;;5.70;3.22;;;20.50;99.90;;;;;;4854875;29;38285;-85
2022/07/19 01:35:24;;;;;;;3.60;2.80;;;20.50;99.90;;;;;;4871861;29;39218;-84
2022/07/19 01:37:51;;;;;;;3.97;3.17;;;20.40;99.90;;;;;;4868905;29;37260;-84
2022/07/19 01:40:19;;;;;;;5.68;3.10;;;20.40;99.90;;;;;;4869889;29;39181;-84
2022/07/19 01:42:47;;;;;;;5.43;3.13;;;20.30;99.90;;;;;;4855878;29;38816;-82
2022/07/19 01:45:13;;;;;;;5.18;3.03;;;20.30;99.90;;;;;;4851912;29;38322;-83
2022/07/19 01:47:40;;;;;;;5.05;3.20;;;20.30;99.90;;;;;;4853996;29;37532;-83
2022/07/19 01:50:10;;;;;;;4.97;3.50;;;20.30;99.90;;;;;;4871728;29;38977;-83
2022/07/19 01:52:36;;;;;;;4.30;3.55;;;20.20;99.90;;;;;;4855283;29;37724;-82
2022/07/19 01:55:04;;;;;;;5.50;3.40;;;20.20;99.90;;;;;;4856276;29;37399;-83
2022/07/19 01:57:30;;;;;;;5.45;3.03;;;20.20;99.90;;;;;;4843916;29;47293;-83
2022/07/19 01:59:56;;;;;;;6.72;3.97;;;20.20;99.90;;;;;;4851694;29;38996;-83
2022/07/19 02:02:22;;;;;;;5.68;3.67;;;20.20;99.90;;;;;;4854769;29;37546;-83
2022/07/19 02:04:48;;;;;;;5.28;3.65;;;20.20;99.90;;;;;;4854978;29;38229;-82
2022/07/19 02:07:15;;;;;;;5.60;3.25;;;20.20;99.90;;;;;;4854758;29;36155;-82
2022/07/19 02:09:41;;;;;;;6.68;4.20;;;20.10;99.90;;;;;;4855227;29;37771;-83
2022/07/19 02:12:07;;;;;;;4.30;3.30;;;20.10;99.90;;;;;;4872617;29;38398;-83
2022/07/19 02:14:33;;;;;;;3.90;3.50;;;20.10;99.90;;;;;;4854761;29;36999;-83
2022/07/19 02:16:59;;;;;;;9.93;4.80;;;20.10;99.90;;;;;;4865125;29;37616;-83
2022/07/19 02:19:25;;;;;;;6.82;4.05;;;20.10;99.90;;;;;;4851759;29;38647;-83
2022/07/19 02:21:51;;;;;;;5.35;4.15;;;20.20;99.90;;;;;;4854973;29;38923;-83
2022/07/19 02:24:18;;;;;;;6.13;3.90;;;20.20;99.90;;;;;;4857327;29;37380;-83
2022/07/19 02:26:44;;;;;;;6.28;3.45;;;20.20;99.90;;;;;;4857776;29;36354;-83
2022/07/19 02:29:10;;;;;;;5.03;3.92;;;20.20;99.90;;;;;;4855968;29;38840;-83
2022/07/19 02:31:36;;;;;;;8.10;4.50;;;20.30;99.90;;;;;;4858711;29;37649;-83
2022/07/19 02:34:02;;;;;;;6.13;3.90;;;20.30;99.90;;;;;;4857647;29;37036;-83
2022/07/19 02:36:28;;;;;;;9.07;4.53;;;20.30;99.90;;;;;;4875069;29;37021;-83
2022/07/19 02:38:55;;;;;;;8.23;4.50;;;20.40;99.90;;;;;;4854010;29;38299;-82
2022/07/19 02:41:22;;;;;;;6.03;4.18;;;20.40;99.90;;;;;;4856648;29;38267;-83
2022/07/19 02:43:48;;;;;;;7.93;4.35;;;20.40;99.90;;;;;;4857665;29;36917;-82
2022/07/19 02:46:14;;;;;;;4.95;3.85;;;20.50;99.90;;;;;;4867807;29;38023;-83
2022/07/19 02:48:40;;;;;;;6.07;4.30;;;20.50;99.90;;;;;;4855021;29;38931;-83
2022/07/19 02:51:11;;;;;;;7.68;3.78;;;20.50;99.90;;;;;;4858174;29;38608;-83
2022/07/19 02:53:38;;;;;;;7.03;4.37;;;20.50;99.90;;;;;;4869230;29;37065;-83
2022/07/19 02:56:04;;;;;;;9.10;4.88;;;20.50;99.90;;;;;;4855981;29;37624;-82
2022/07/19 02:58:30;;;;;;;11.75;4.55;;;20.40;99.90;;;;;;4872057;29;38406;-82
2022/07/19 03:00:56;;;;;;;6.60;3.97;;;20.40;99.90;;;;;;4859375;29;38834;-83
2022/07/19 03:06:07;;;;;;;5.35;4.22;;;20.40;99.90;;;;;;4872581;29;38427;-83
2022/07/19 03:08:33;;;;;;;5.45;3.63;;;20.40;99.90;;;;;;4858719;29;38485;-83
2022/07/19 03:10:59;;;;;;;4.72;3.65;;;20.30;99.90;;;;;;4868659;29;38388;-83
2022/07/19 03:13:25;;;;;;;7.03;3.90;;;20.30;99.90;;;;;;4856567;29;37548;-83
2022/07/19 03:15:51;;;;;;;6.07;4.10;;;20.30;99.90;;;;;;4858611;29;35982;-83
2022/07/19 03:18:17;;;;;;;5.28;3.83;;;20.20;99.90;;;;;;4870045;29;39648;-83
2022/07/19 03:20:43;;;;;;;7.57;3.72;;;20.10;99.90;;;;;;4857620;29;38024;-84
2022/07/19 03:23:09;;;;;;;5.22;3.63;;;20.00;99.90;;;;;;4853414;29;36692;-83
2022/07/19 03:25:35;;;;;;;5.03;3.80;;;19.90;99.90;;;;;;4874313;29;37573;-82
2022/07/19 03:28:02;;;;;;;5.05;3.85;;;19.90;99.90;;;;;;4856910;29;37889;-82
2022/07/19 03:30:28;;;;;;;5.05;3.53;;;19.90;99.90;;;;;;4857682;29;38316;-83
2022/07/19 03:32:54;;;;;;;8.32;3.70;;;19.90;99.90;;;;;;4856506;29;37134;-83
2022/07/19 03:35:21;;;;;;;8.35;3.65;;;19.90;99.90;;;;;;4855086;29;36356;-83
2022/07/19 03:37:47;;;;;;;6.95;4.35;;;19.80;99.90;;;;;;4856909;29;39482;-83
2022/07/19 03:40:13;;;;;;;7.15;4.15;;;19.80;99.90;;;;;;4857148;29;38745;-83
2022/07/19 03:42:39;;;;;;;7.18;4.18;;;19.80;99.90;;;;;;4854833;29;36830;-83
2022/07/19 03:45:07;;;;;;;6.00;4.18;;;19.80;99.90;;;;;;4856232;29;20045;-83
2022/07/19 03:47:33;;;;;;;5.47;3.90;;;19.80;99.90;;;;;;4855641;29;37879;-82
2022/07/19 03:49:59;;;;;;;7.80;4.05;;;19.80;99.90;;;;;;4872061;29;38445;-82
2022/07/19 03:52:26;;;;;;;6.10;4.45;;;19.80;99.90;;;;;;4855969;29;36873;-83
2022/07/19 03:54:52;;;;;;;5.90;3.95;;;19.70;99.90;;;;;;4856447;29;36115;-82
2022/07/19 03:57:18;;;;;;;6.13;4.03;;;19.70;99.90;;;;;;4855248;29;39062;-83
2022/07/19 03:59:45;;;;;;;8.60;3.92;;;19.70;99.90;;;;;;4853034;29;37563;-83
2022/07/19 04:02:11;;;;;;;5.75;4.13;;;19.70;99.90;;;;;;4856990;29;37843;-82
2022/07/19 04:04:37;;;;;;;7.65;4.22;;;19.70;99.90;;;;;;4857985;29;36070;-82
2022/07/19 04:07:03;;;;;;;5.97;3.92;;;19.70;99.90;;;;;;4854351;29;38848;-82
2022/07/19 04:09:29;;;;;;;7.05;3.83;;;19.70;99.90;;;;;;4854671;29;37655;-83
2022/07/19 04:11:56;;;;;;;6.22;3.78;;;19.70;99.90;;;;;;4856559;29;37224;-83
2022/07/19 04:14:22;;;;;;;7.25;3.90;;;19.70;99.90;;;;;;4856526;29;37272;-83
2022/07/19 04:16:48;;;;;;;5.57;3.63;;;19.70;99.90;;;;;;4862911;29;40104;-82
2022/07/19 04:19:14;;;;;;;5.35;4.10;;;19.70;99.90;;;;;;4851798;29;39033;-83
2022/07/19 04:21:40;;;;;;;5.28;3.67;;;19.70;99.90;;;;;;4856659;29;37099;-82
2022/07/19 04:24:06;;;;;;;4.38;3.90;;;19.70;99.90;;;;;;4840122;29;36172;-83
2022/07/19 04:26:32;;;;;;;8.88;4.10;;;19.60;99.90;;;;;;4871178;29;39701;-82
2022/07/19 04:28:58;;;;;;;5.85;3.95;;;19.70;99.90;;;;;;4852885;29;37846;-82
2022/07/19 04:31:24;;;;;;;4.10;3.70;;;19.60;99.90;;;;;;4857324;29;37375;-82
2022/07/19 04:33:50;;;;;;;5.32;3.55;;;19.60;99.90;;;;;;4873781;29;37209;-81
2022/07/19 04:36:16;;;;;;;4.35;3.95;;;19.70;99.90;;;;;;4830359;29;37964;-82
2022/07/19 04:38:42;;;;;;;4.88;3.67;;;19.70;99.90;;;;;;4856922;29;37382;-82
2022/07/19 04:41:08;;;;;;;6.70;4.50;;;19.60;99.90;;;;;;4852444;29;38437;-82
2022/07/19 04:43:34;;;;;;;4.97;3.75;;;19.70;99.90;;;;;;4854981;29;36121;-81
2022/07/19 04:46:00;;;;;;;5.43;3.65;;;19.70;99.90;;;;;;4873295;29;38948;-83
2022/07/19 04:48:27;;;;;;;5.38;3.97;;;19.80;99.90;;;;;;4853137;29;40156;-83
2022/07/19 04:50:53;;;;;;;6.35;4.18;;;19.80;99.90;;;;;;4856159;29;37788;-82
2022/07/19 04:53:19;;;;;;;5.70;4.45;;;19.90;99.90;;;;;;4867045;29;37558;-82
2022/07/19 04:55:45;;;;;;;5.38;3.90;;;20.00;99.90;;;;;;4860997;29;39000;-82
2022/07/19 04:58:11;;;;;;;4.97;3.78;;;20.00;99.90;;;;;;4870703;29;38206;-83
2022/07/19 05:00:37;;;;;;;7.53;3.88;;;20.10;99.90;;;;;;4857388;29;36976;-82
2022/07/19 05:03:05;;;;;;;5.78;3.95;;;20.20;99.90;;;;;;4854430;29;35931;-82
2022/07/19 05:05:31;;;;;;;6.63;3.75;;;20.20;99.90;;;;;;4874091;29;38727;-83
2022/07/19 05:07:57;;;;;;;6.22;4.05;;;20.20;99.90;;;;;;4854253;29;37335;-83
2022/07/19 05:10:23;;;;;;;5.82;4.18;;;20.30;99.90;;;;;;4852478;29;37130;-83
2022/07/19 05:12:50;;;;;;;4.60;3.75;;;20.40;99.90;;;;;;4873255;29;37219;-83
2022/07/19 05:15:16;;;;;;;4.63;3.40;;;20.50;99.90;;;;;;4855438;29;37723;-83
2022/07/19 05:17:42;;;;;;;6.60;4.30;;;20.60;99.90;;;;;;4871617;29;38369;-83
2022/07/19 05:20:10;;;;;;;7.03;4.20;;;20.70;99.90;;;;;;4855209;29;38905;-84
2022/07/19 05:22:36;;;;;;;7.13;4.65;;;20.80;99.90;;;;;;4869859;29;37086;-83
2022/07/19 05:25:02;;;;;;;8.23;4.05;;;21.00;99.90;;;;;;4854339;29;38551;-83
2022/07/19 05:27:29;;;;;;;10.55;4.45;;;21.20;99.90;;;;;;4845217;29;38477;-83
2022/07/19 05:29:55;;;;;;;7.53;4.03;;;21.40;99.90;;;;;;4865061;29;38514;-83
2022/07/19 05:32:21;;;;;;;5.50;3.80;;;21.60;99.90;;;;;;4854712;29;36467;-82
2022/07/19 05:34:47;;;;;;;5.97;4.13;;;21.90;99.90;;;;;;4855627;29;38440;-83
2022/07/19 05:37:13;;;;;;;6.13;3.75;;;22.20;99.90;;;;;;4853400;29;37309;-83
2022/07/19 05:39:39;;;;;;;9.75;4.40;;;22.40;99.90;;;;;;4870682;29;37924;-83
2022/07/19 05:42:05;;;;;;;8.68;4.50;;;22.70;99.90;;;;;;4854179;29;37205;-83
2022/07/19 05:44:31;;;;;;;10.32;4.65;;;22.80;99.90;;;;;;4854375;29;38627;-83
2022/07/19 05:46:57;;;;;;;11.00;3.60;;;23.00;99.90;;;;;;4855600;29;37795;-83
2022/07/19 05:49:24;;;;;;;7.53;4.10;;;23.20;99.90;;;;;;4867301;29;39123;-82
2022/07/19 05:51:50;;;;;;;5.18;3.38;;;23.40;99.90;;;;;;4854618;29;36628;-82
2022/07/19 05:54:17;;;;;;;8.95;4.28;;;23.60;99.90;;;;;;4851945;29;38167;-82
2022/07/19 05:56:43;;;;;;;8.73;4.30;;;23.70;99.90;;;;;;4855680;29;37463;-82
2022/07/19 05:59:09;;;;;;;4.75;3.78;;;23.80;99.90;;;;;;4844187;29;38298;-81
2022/07/19 06:01:36;;;;;;;8.88;4.68;;;23.90;99.90;;;;;;4856362;29;36265;-82
2022/07/19 06:04:02;;;;;;;8.40;4.35;;;24.20;99.90;;;;;;4871635;29;38882;-82
2022/07/19 06:06:30;;;;;;;6.53;3.95;;;24.30;99.90;;;;;;4866862;29;38778;-82
2022/07/19 06:08:58;;;;;;;8.50;4.25;;;24.30;99.90;;;;;;4860239;29;38344;-82
2022/07/19 06:11:24;;;;;;;9.15;4.35;;;24.40;99.90;;;;;;4858098;29;36887;-82
2022/07/19 06:13:51;;;;;;;6.47;4.32;;;24.60;99.90;;;;;;4858842;29;37899;-82
2022/07/19 06:16:17;;;;;;;11.10;4.25;;;24.70;99.90;;;;;;4857061;29;37453;-82
2022/07/19 06:18:44;;;;;;;10.30;3.83;;;24.80;99.90;;;;;;4873978;29;39100;-82
2022/07/19 06:21:12;;;;;;;7.03;3.38;;;25.10;99.90;;;;;;4872740;29;38337;-82
2022/07/19 06:23:39;;;;;;;5.00;3.72;;;25.30;99.90;;;;;;4858147;29;37927;-82
2022/07/19 06:26:07;;;;;;;9.27;4.25;;;25.40;99.90;;;;;;4857429;29;36916;-80
2022/07/19 06:28:33;;;;;;;7.18;3.85;;;25.50;99.90;;;;;;4873509;29;38876;-81
2022/07/19 06:30:59;;;;;;;5.75;3.58;;;25.60;99.90;;;;;;4858016;29;36386;-82
2022/07/19 06:33:26;;;;;;;7.20;3.78;;;25.70;99.90;;;;;;4872180;29;39900;-80
2022/07/19 06:35:52;;;;;;;6.18;3.95;;;25.80;99.90;;;;;;4848421;29;39029;-80
2022/07/19 06:38:18;;;;;;;9.73;3.83;;;25.90;99.90;;;;;;4871458;29;37945;-80
2022/07/19 06:40:44;;;;;;;9.73;4.65;;;25.80;99.90;;;;;;4868599;29;36480;-80
2022/07/19 06:43:10;;;;;;;6.80;3.60;;;26.00;99.90;;;;;;4854231;29;37911;-80
2022/07/19 06:45:37;;;;;;;6.30;4.03;;;26.20;99.90;;;;;;4871673;29;37522;-80
2022/07/19 06:48:04;;;;;;;8.85;4.35;;;26.30;99.90;;;;;;4853966;29;38580;-82
2022/07/19 06:50:30;;;;;;;8.98;4.43;;;26.40;99.90;;;;;;4856318;29;36333;-80
2022/07/19 06:52:56;;;;;;;9.88;3.35;;;26.60;99.90;;;;;;4856004;29;37759;-80
2022/07/19 06:55:22;;;;;;;7.80;4.05;;;26.70;99.90;;;;;;4855508;29;37653;-80
2022/07/19 06:57:48;;;;;;;8.18;4.13;;;26.70;99.90;;;;;;4872367;29;38766;-80
2022/07/19 07:00:14;;;;;;;7.55;3.40;;;26.80;99.90;;;;;;4848948;29;36418;-81
2022/07/19 07:02:41;;;;;;;6.22;2.88;;;26.90;99.90;;;;;;4856104;29;38767;-83
2022/07/19 07:05:09;;;;;;;7.88;4.00;;;27.00;99.90;;;;;;4873558;29;38281;-83
2022/07/19 07:07:35;;;;;;;6.22;3.40;;;27.10;99.90;;;;;;4857870;29;37154;-83
2022/07/19 07:10:04;;;;;;;11.52;4.18;;;27.20;99.90;;;;;;4854903;29;38732;-82
2022/07/19 07:12:30;;;;;;;6.57;3.13;;;27.20;99.90;;;;;;4858901;29;47238;-82
2022/07/19 07:14:56;;;;;;;9.02;3.40;;;27.40;99.90;;;;;;4858747;29;37307;-83
2022/07/19 07:17:22;;;;;;;7.38;3.38;;;27.40;99.90;;;;;;4856180;29;37577;-82
2022/07/19 07:19:48;;;;;;;8.98;3.70;;;27.60;99.90;;;;;;4857555;29;36414;-82
2022/07/19 07:22:14;;;;;;;13.48;3.70;;;27.80;99.90;;;;;;4853630;29;39079;-83
2022/07/19 07:24:40;;;;;;;9.20;3.70;;;28.00;99.90;;;;;;4868903;29;39433;-82
2022/07/19 07:27:07;;;;;;;4.50;2.92;;;28.10;99.90;;;;;;4855341;29;36923;-82
2022/07/19 07:29:33;;;;;;;12.18;3.42;;;28.10;99.90;;;;;;4857884;29;36221;-82
2022/07/19 07:31:59;;;;;;;6.97;3.85;;;28.10;99.90;;;;;;4874991;29;38679;-82
2022/07/19 07:34:25;;;;;;;9.95;3.80;;;28.10;99.90;;;;;;4855613;29;38706;-83
2022/07/19 07:36:51;;;;;;;7.90;3.70;;;28.30;99.90;;;;;;4873656;29;37930;-82
2022/07/19 07:39:17;;;;;;;7.30;4.18;;;28.30;99.90;;;;;;4850365;29;36124;-82
2022/07/19 07:41:43;;;;;;;8.35;3.78;;;28.40;99.90;;;;;;4854956;29;39313;-82
2022/07/19 07:44:09;;;;;;;4.32;3.20;;;28.50;99.90;;;;;;4869892;29;39250;-82
2022/07/19 07:46:36;;;;;;;5.55;3.15;;;28.70;99.90;;;;;;4856064;29;37184;-82
2022/07/19 07:49:02;;;;;;;7.30;2.85;;;29.00;99.90;;;;;;4855366;29;38910;-82
2022/07/19 07:51:28;;;;;;;8.45;3.00;;;29.00;99.90;;;;;;4873761;29;38579;-82
2022/07/19 07:53:55;;;;;;;9.07;3.10;;;29.00;99.90;;;;;;4870187;29;38157;-82
2022/07/19 07:56:21;;;;;;;6.47;2.90;;;29.20;99.90;;;;;;4856377;29;37897;-82
2022/07/19 07:58:47;;;;;;;6.03;3.25;;;29.30;99.90;;;;;;4859211;29;37626;-82
2022/07/19 08:01:15;;;;;;;11.50;3.10;;;29.60;99.90;;;;;;4856246;29;37760;-82
2022/07/19 08:03:42;;;;;;;4.53;2.70;;;29.70;99.90;;;;;;4856508;29;38289;-81
2022/07/19 08:06:08;;;;;;;8.43;3.47;;;29.70;99.90;;;;;;4856515;29;38111;-82
2022/07/19 08:08:34;;;;;;;5.63;2.60;;;30.00;99.90;;;;;;4855798;29;37462;-83
2022/07/19 08:11:00;;;;;;;7.78;3.47;;;30.00;99.90;;;;;;4874455;29;38936;-83
2022/07/19 08:13:26;;;;;;;7.97;2.70;;;29.90;99.90;;;;;;4872965;29;39528;-83
2022/07/19 08:15:52;;;;;;;6.60;3.38;;;30.00;99.90;;;;;;4872727;29;38760;-83
2022/07/19 08:18:18;;;;;;;10.60;3.03;;;30.20;99.90;;;;;;4856862;29;37131;-83
2022/07/19 08:20:44;;;;;;;6.55;2.72;;;30.10;99.90;;;;;;4871457;29;38729;-83
2022/07/19 08:23:10;;;;;;;4.82;2.60;;;30.20;99.90;;;;;;4870747;29;38604;-84
2022/07/19 08:25:36;;;;;;;9.07;3.13;;;30.30;99.90;;;;;;4856659;29;37071;-83
2022/07/19 08:28:03;;;;;;;8.35;2.80;;;30.40;99.90;;;;;;4855794;29;36121;-83
2022/07/19 08:30:31;;;;;;;8.20;2.83;;;30.60;99.90;;;;;;4857173;29;37804;-84
2022/07/19 08:32:57;;;;;;;7.55;3.05;;;30.80;99.90;;;;;;4873047;29;38555;-84
2022/07/19 08:35:24;;;;;;;7.63;2.92;;;31.20;99.90;;;;;;4856955;29;38530;-81
2022/07/19 08:37:50;;;;;;;12.65;3.70;;;31.30;99.90;;;;;;4855646;29;36221;-81
2022/07/19 08:40:16;;;;;;;12.27;2.50;;;31.30;99.90;;;;;;4867505;29;39874;-83
2022/07/19 08:42:42;;;;;;;6.72;2.85;;;31.30;99.90;;;;;;4856761;29;39501;-82
2022/07/19 08:45:09;;;;;;;10.23;2.90;;;31.30;99.90;;;;;;4873356;29;38067;-82
2022/07/19 08:47:36;;;;;;;7.60;2.30;;;31.30;99.90;;;;;;4855688;29;36627;-82
2022/07/19 08:50:05;;;;;;;6.43;2.72;;;31.50;99.90;;;;;;4871960;29;39889;-82
2022/07/19 08:52:33;;;;;;;5.25;2.58;;;31.60;99.90;;;;;;4874302;29;47409;-81
2022/07/19 08:54:59;;;;;;;10.23;2.60;;;31.70;99.90;;;;;;4854959;29;37506;-81
2022/07/19 09:00:11;;;;;;;5.32;2.60;;;31.70;99.90;;;;;;4873261;29;39537;-83
2022/07/19 09:02:38;;;;;;;9.88;2.63;;;31.90;99.90;;;;;;4856009;29;37192;-81
2022/07/19 09:05:07;;;;;;;7.53;2.03;;;32.10;99.90;;;;;;4855013;29;38106;-82
2022/07/19 09:07:37;;;;;;;7.95;2.17;;;32.20;99.90;;;;;;4860789;29;37383;-82
2022/07/19 09:10:21;;;;;;;10.07;2.47;;;32.20;99.90;;;;;;4868281;29;39347;-82
2022/07/19 09:13:11;;;;;;;6.90;2.38;;;32.60;99.90;;;;;;4872406;29;38307;-82
2022/07/19 09:15:46;;;;;;;7.05;2.42;;;32.80;99.90;;;;;;4851109;29;47263;-82
2022/07/19 09:18:26;;;;;;;8.52;2.15;;;32.70;99.90;;;;;;4851914;29;36587;-82
2022/07/19 09:21:01;;;;;;;4.35;1.95;;;32.90;99.90;;;;;;4866130;29;38910;-82
2022/07/19 09:23:28;;;;;;;2.75;1.80;;;33.20;99.90;;;;;;4857557;29;47676;-82
2022/07/19 09:25:57;;;;;;;5.75;2.42;;;33.30;99.90;;;;;;4872011;29;39172;-82
2022/07/19 09:28:24;;;;;;;3.13;1.75;;;33.30;99.90;;;;;;4862440;29;37976;-83
2022/07/19 09:30:53;;;;;;;3.50;1.83;;;33.30;99.90;;;;;;4870317;29;38832;-83
2022/07/19 09:33:25;;;;;;;4.68;1.77;;;33.40;99.90;;;;;;4854809;29;37663;-81
2022/07/19 09:35:56;;;;;;;5.25;2.10;;;33.60;99.90;;;;;;4854811;29;37140;-83
2022/07/19 09:38:43;;;;;;;6.03;2.43;;;33.90;99.90;;;;;;4853928;29;37291;-81
2022/07/19 09:41:17;;;;;;;3.90;1.98;;;33.90;99.90;;;;;;4853757;29;38994;-82
2022/07/19 09:43:51;;;;;;;4.45;2.17;;;33.90;99.90;;;;;;4853944;29;37498;-83
2022/07/19 09:46:40;;;;;;;4.15;1.98;;;33.80;99.90;;;;;;4869073;29;38339;-83
2022/07/19 09:49:17;;;;;;;4.72;2.03;;;33.90;99.90;;;;;;4867715;29;37491;-83
2022/07/19 09:51:46;;;;;;;6.63;2.40;;;34.10;99.90;;;;;;4867695;29;38806;-82
2022/07/19 09:54:15;;;;;;;4.65;2.00;;;34.00;99.90;;;;;;4851061;29;38410;-80
2022/07/19 09:56:43;;;;;;;5.88;2.35;;;34.00;99.90;;;;;;4872264;29;38797;-82
2022/07/19 09:59:10;;;;;;;7.43;2.13;;;33.90;99.90;;;;;;4855032;29;37235;-82
2022/07/19 10:01:39;;;;;;;34.80;5.47;;;34.10;99.90;;;;;;4856149;29;38012;-83
2022/07/19 10:04:09;;;;;;;8.77;2.63;;;34.30;99.90;;;;;;4869667;29;39478;-83
2022/07/19 10:06:40;;;;;;;10.30;2.50;;;34.30;99.90;;;;;;4854573;29;38918;-83
2022/07/19 10:09:08;;;;;;;23.33;3.47;;;34.50;99.90;;;;;;4854730;29;37381;-84
2022/07/19 10:11:35;;;;;;;6.80;2.30;;;34.80;99.90;;;;;;4855254;29;38195;-83
2022/07/19 10:14:05;;;;;;;13.50;2.35;;;35.00;99.90;;;;;;4854431;29;39086;-84
2022/07/19 10:16:34;;;;;;;2.67;1.70;;;35.00;99.90;;;;;;4872255;29;39214;-83
2022/07/19 10:19:13;;;;;;;12.07;2.60;;;35.00;99.90;;;;;;4871303;29;37872;-82
2022/07/19 10:21:40;;;;;;;7.30;2.25;;;34.90;99.90;;;;;;4854666;29;47636;-82
2022/07/19 10:24:06;;;;;;;7.45;2.35;;;34.60;99.90;;;;;;4871890;29;39367;-82
2022/07/19 10:26:36;;;;;;;4.43;1.80;;;34.50;99.90;;;;;;4854493;29;38468;-83
2022/07/19 10:29:15;;;;;;;8.50;2.35;;;34.80;99.90;;;;;;4854765;29;37456;-83
2022/07/19 10:31:43;;;;;;;5.28;2.10;;;35.30;99.90;;;;;;4872781;29;48583;-82
2022/07/19 10:34:20;;;;;;;12.75;2.42;;;35.70;99.90;;;;;;4853109;29;37772;-83
2022/07/19 10:36:48;;;;;;;11.60;2.55;;;35.60;99.90;;;;;;4871258;29;39769;-83
2022/07/19 10:39:27;;;;;;;6.85;2.20;;;35.50;99.90;;;;;;4854415;29;37618;-83
2022/07/19 10:42:13;;;;;;;6.43;2.28;;;35.30;99.90;;;;;;4855967;29;38671;-83
2022/07/19 10:44:55;;;;;;;5.68;2.17;;;35.40;99.90;;;;;;4854166;29;47447;-83
2022/07/19 10:47:37;;;;;;;8.68;1.92;;;35.60;99.90;;;;;;4857437;29;38516;-83
2022/07/19 10:50:05;;;;;;;8.40;2.20;;;35.70;99.90;;;;;;4848412;29;39218;-83
2022/07/19 10:52:33;;;;;;;9.82;2.28;;;35.60;99.90;;;;;;4874866;29;47820;-83
2022/07/19 10:55:18;;;;;;;7.78;2.20;;;35.60;99.90;;;;;;4857937;29;39027;-84
2022/07/19 10:58:04;;;;;;;5.15;2.00;;;36.00;99.90;;;;;;4874702;29;48036;-83
2022/07/19 11:00:32;;;;;;;8.73;2.10;;;36.00;99.90;;;;;;4856224;29;47375;-83
2022/07/19 11:03:29;;;;;;;8.40;2.08;;;36.10;99.90;;;;;;4873358;29;39450;-84
2022/07/19 11:06:00;;;;;;;7.95;2.05;;;35.70;99.90;;;;;;4857050;29;47247;-83
2022/07/19 11:08:40;;;;;;;6.45;2.00;;;35.80;99.90;;;;;;4853547;29;40425;-84
2022/07/19 11:11:09;;;;;;;7.20;2.08;;;35.90;99.90;;;;;;4864262;29;37285;-85
2022/07/19 11:13:38;;;;;;;10.90;2.17;;;36.10;99.90;;;;;;4858070;29;37621;-83
2022/07/19 11:16:04;;;;;;;6.88;2.13;;;36.20;99.90;;;;;;4856126;29;38814;-83
2022/07/19 11:18:32;;;;;;;6.45;1.88;;;36.30;99.90;;;;;;4875244;29;39117;-84
2022/07/19 11:21:00;;;;;;;5.75;2.00;;;36.50;99.90;;;;;;4872547;29;37896;-84
2022/07/19 11:23:35;;;;;;;8.93;2.60;;;36.90;99.90;;;;;;4858385;29;37739;-84
2022/07/19 11:26:13;;;;;;;6.75;1.92;;;36.70;99.90;;;;;;4857690;29;38600;-84
2022/07/19 11:28:41;;;;;;;5.80;2.20;;;36.90;99.90;;;;;;4857133;29;38818;-84
2022/07/19 11:31:24;;;;;;;5.95;2.63;;;37.00;99.90;;;;;;4840940;29;36528;-84
2022/07/19 11:33:56;;;;;;;6.60;2.25;;;37.30;99.90;;;;;;4836885;29;37750;-84
2022/07/19 11:36:23;;;;;;;21.52;4.38;;;37.20;99.90;;;;;;4861659;29;38732;-84
2022/07/19 11:38:52;;;;;;;4.45;1.88;;;37.40;99.90;;;;;;4836466;29;37765;-85
2022/07/19 11:41:22;;;;;;;11.25;1.90;;;37.60;99.90;;;;;;4866384;29;37213;-84
2022/07/19 11:44:15;;;;;;;7.18;2.20;;;37.70;99.90;;;;;;4859781;29;38663;-84
2022/07/19 11:46:41;;;;;;;7.88;1.75;;;37.30;99.90;;;;;;4854538;29;48750;-84
2022/07/19 11:49:11;;;;;;;10.18;2.15;;;37.30;99.90;;;;;;4840216;29;38696;-83
2022/07/19 11:51:37;;;;;;;5.18;2.13;;;37.30;99.90;;;;;;4843689;29;36732;-84
2022/07/19 11:54:06;;;;;;;5.53;1.70;;;37.10;99.90;;;;;;4862770;29;39721;-84
2022/07/19 11:56:34;;;;;;;6.13;2.00;;;37.20;99.90;;;;;;4858991;29;38227;-84
2022/07/19 11:59:05;;;;;;;5.10;1.70;;;37.10;98.80;;;;;;4838520;29;37427;-85
2022/07/19 12:01:32;;;;;;;;;;;37.10;97.40;;;;;;4843264;29;47620;-85
2022/07/19 12:04:03;;;;;;;3.33;1.75;;;37.30;96.80;;;;;;4845101;29;39720;-84
2022/07/19 12:06:37;;;;;;;4.65;1.60;;;37.40;96.00;;;;;;4837209;29;47525;-84
2022/07/19 12:09:08;;;;;;;4.65;1.60;;;36.90;97.10;;;;;;4835937;29;38878;-84
2022/07/19 12:11:43;;;;;;;4.97;1.40;;;36.90;97.40;;;;;;4833988;29;36331;-84
2022/07/19 12:14:25;;;;;;;4.57;1.48;;;37.10;95.50;;;;;;4838476;29;39262;-85
2022/07/19 12:17:11;;;;;;;6.18;1.70;;;37.00;95.30;;;;;;4844752;29;39325;-83
2022/07/19 12:19:38;;;;;;;12.32;3.20;;;37.10;97.40;;;;;;4862528;29;48792;-84
2022/07/19 12:22:04;;;;;;;7.97;2.20;;;37.20;96.20;;;;;;4833184;29;37477;-84
2022/07/19 12:24:31;;;;;;;5.05;2.10;;;37.10;95.40;;;;;;4839105;29;38902;-85
2022/07/19 12:27:16;;;;;;;9.43;1.90;;;37.10;94.50;;;;;;4834933;29;38598;-84
2022/07/19 12:29:47;;;;;;;3.17;1.45;;;37.40;95.90;;;;;;4850296;29;48468;-85
2022/07/19 12:32:25;;;;;;;7.25;1.75;;;37.40;97.30;;;;;;4873113;29;37186;-85
2022/07/19 12:34:57;;;;;;;4.10;1.70;;;37.60;95.70;;;;;;4856421;29;38259;-84
2022/07/19 12:37:31;;;;;;;5.65;2.60;;;37.40;95.20;;;;;;4872258;29;38640;-82
2022/07/19 12:39:59;;;;;;;4.30;1.98;;;37.60;94.50;;;;;;4853098;29;37088;-83
2022/07/19 12:42:25;;;;;;;5.82;1.85;;;37.80;94.60;;;;;;4873767;29;37230;-84
2022/07/19 12:44:51;;;;;;;3.13;1.73;;;37.80;94.50;;;;;;4873914;29;38689;-84
2022/07/19 12:47:17;;;;;;;7.05;2.03;;;37.60;94.50;;;;;;4853377;29;38128;-84
2022/07/19 12:49:47;;;;;;;3.95;1.70;;;37.60;94.30;;;;;;4873537;29;38512;-84
2022/07/19 12:52:13;;;;;;;2.70;1.80;;;37.60;95.00;;;;;;4856055;29;36283;-83
2022/07/19 12:54:39;;;;;;;2.85;1.60;;;37.60;93.10;;;;;;4849295;29;38411;-82
2022/07/19 12:57:06;;;;;;;3.90;1.30;;;37.80;94.50;;;;;;4856246;29;37999;-84